sensor_id;sensor_type;location;lat;lon;timestamp;P1;durP1;ratioP1;P2;durP2;ratioP2
14167;SDS011;7163;50.626;12.922;2023-07-28T00:03:38;3.27;;;2.90;;
14167;SDS011;7163;50.626;12.922;2023-07-28T00:08:39;5.07;;;2.90;;
14167;SDS011;7163;50.626;12.922;2023-07-28T00:13:39;3.93;;;2.90;;
14167;SDS011;7163;50.626;12.922;2023-07-28T00:18:40;4.07;;;3.00;;
14167;SDS011;7163;50.626;12.922;2023-07-28T00:23:40;6.70;;;3.20;;
14167;SDS011;7163;50.626;12.922;2023-07-28T00:28:41;4.03;;;3.23;;
14167;SDS011;7163;50.626;12.922;2023-07-28T00:33:42;3.43;;;2.50;;
14167;SDS011;7163;50.626;12.922;2023-07-28T00:38:42;2.90;;;2.40;;
14167;SDS011;7163;50.626;12.922;2023-07-28T00:43:42;4.83;;;2.60;;
14167;SDS011;7163;50.626;12.922;2023-07-28T00:48:43;3.87;;;2.83;;
14167;SDS011;7163;50.626;12.922;2023-07-28T00:53:44;2.97;;;2.60;;
14167;SDS011;7163;50.626;12.922;2023-07-28T00:58:45;2.53;;;2.27;;
14167;SDS011;7163;50.626;12.922;2023-07-28T01:03:47;2.57;;;2.37;;
14167;SDS011;7163;50.626;12.922;2023-07-28T01:08:49;3.17;;;2.50;;
14167;SDS011;7163;50.626;12.922;2023-07-28T01:13:56;3.30;;;2.37;;
14167;SDS011;7163;50.626;12.922;2023-07-28T01:18:57;2.67;;;2.10;;
14167;SDS011;7163;50.626;12.922;2023-07-28T01:29:04;2.60;;;2.27;;
14167;SDS011;7163;50.626;12.922;2023-07-28T01:34:05;3.90;;;2.60;;
14167;SDS011;7163;50.626;12.922;2023-07-28T01:39:05;2.73;;;2.53;;
14167;SDS011;7163;50.626;12.922;2023-07-28T01:44:06;3.07;;;2.60;;
14167;SDS011;7163;50.626;12.922;2023-07-28T01:49:06;3.13;;;2.50;;
14167;SDS011;7163;50.626;12.922;2023-07-28T01:54:07;3.37;;;2.70;;
14167;SDS011;7163;50.626;12.922;2023-07-28T01:59:07;2.60;;;2.40;;
14167;SDS011;7163;50.626;12.922;2023-07-28T02:04:08;2.70;;;2.43;;
14167;SDS011;7163;50.626;12.922;2023-07-28T02:09:08;4.40;;;2.60;;
14167;SDS011;7163;50.626;12.922;2023-07-28T02:14:09;2.53;;;2.33;;
14167;SDS011;7163;50.626;12.922;2023-07-28T02:19:09;3.07;;;2.60;;
14167;SDS011;7163;50.626;12.922;2023-07-28T02:24:10;2.67;;;2.47;;
14167;SDS011;7163;50.626;12.922;2023-07-28T02:29:10;2.80;;;2.50;;
14167;SDS011;7163;50.626;12.922;2023-07-28T02:34:11;2.40;;;2.20;;
14167;SDS011;7163;50.626;12.922;2023-07-28T02:39:11;3.10;;;2.40;;
14167;SDS011;7163;50.626;12.922;2023-07-28T02:44:11;3.73;;;2.50;;
14167;SDS011;7163;50.626;12.922;2023-07-28T02:49:12;3.93;;;2.50;;
14167;SDS011;7163;50.626;12.922;2023-07-28T02:54:12;4.20;;;2.33;;
14167;SDS011;7163;50.626;12.922;2023-07-28T02:59:13;2.90;;;2.60;;
14167;SDS011;7163;50.626;12.922;2023-07-28T03:04:14;2.83;;;2.13;;
14167;SDS011;7163;50.626;12.922;2023-07-28T03:09:14;2.40;;;2.20;;
14167;SDS011;7163;50.626;12.922;2023-07-28T03:14:15;3.17;;;2.30;;
14167;SDS011;7163;50.626;12.922;2023-07-28T03:19:15;2.30;;;2.10;;
14167;SDS011;7163;50.626;12.922;2023-07-28T03:24:17;4.10;;;2.30;;
14167;SDS011;7163;50.626;12.922;2023-07-28T03:29:18;2.20;;;2.00;;
14167;SDS011;7163;50.626;12.922;2023-07-28T03:34:18;3.90;;;2.20;;
14167;SDS011;7163;50.626;12.922;2023-07-28T03:39:19;3.63;;;2.10;;
14167;SDS011;7163;50.626;12.922;2023-07-28T03:44:20;3.63;;;2.23;;
14167;SDS011;7163;50.626;12.922;2023-07-28T03:49:20;2.40;;;2.20;;
14167;SDS011;7163;50.626;12.922;2023-07-28T03:54:21;2.10;;;1.97;;
14167;SDS011;7163;50.626;12.922;2023-07-28T03:59:21;3.70;;;2.00;;
14167;SDS011;7163;50.626;12.922;2023-07-28T04:04:22;3.23;;;1.70;;
14167;SDS011;7163;50.626;12.922;2023-07-28T04:09:23;2.10;;;2.00;;
14167;SDS011;7163;50.626;12.922;2023-07-28T04:14:24;2.07;;;1.87;;
14167;SDS011;7163;50.626;12.922;2023-07-28T04:19:25;1.87;;;1.77;;
14167;SDS011;7163;50.626;12.922;2023-07-28T04:24:26;3.70;;;1.90;;
14167;SDS011;7163;50.626;12.922;2023-07-28T04:29:27;1.70;;;1.60;;
14167;SDS011;7163;50.626;12.922;2023-07-28T04:34:28;1.80;;;1.70;;
14167;SDS011;7163;50.626;12.922;2023-07-28T04:39:28;2.63;;;1.60;;
14167;SDS011;7163;50.626;12.922;2023-07-28T04:44:29;1.70;;;1.60;;
14167;SDS011;7163;50.626;12.922;2023-07-28T04:49:30;1.60;;;1.50;;
14167;SDS011;7163;50.626;12.922;2023-07-28T04:54:30;2.97;;;1.60;;
14167;SDS011;7163;50.626;12.922;2023-07-28T04:59:31;1.43;;;1.33;;
14167;SDS011;7163;50.626;12.922;2023-07-28T05:04:31;1.70;;;1.60;;
14167;SDS011;7163;50.626;12.922;2023-07-28T05:09:32;1.13;;;1.10;;
14167;SDS011;7163;50.626;12.922;2023-07-28T05:14:32;3.20;;;1.47;;
14167;SDS011;7163;50.626;12.922;2023-07-28T05:19:33;1.50;;;1.40;;
14167;SDS011;7163;50.626;12.922;2023-07-28T05:24:33;3.03;;;1.33;;
14167;SDS011;7163;50.626;12.922;2023-07-28T05:29:34;1.10;;;1.10;;
14167;SDS011;7163;50.626;12.922;2023-07-28T05:34:34;1.60;;;1.50;;
14167;SDS011;7163;50.626;12.922;2023-07-28T05:39:35;2.53;;;1.50;;
14167;SDS011;7163;50.626;12.922;2023-07-28T05:44:35;4.87;;;2.93;;
14167;SDS011;7163;50.626;12.922;2023-07-28T05:49:36;11.13;;;7.27;;
14167;SDS011;7163;50.626;12.922;2023-07-28T05:54:36;10.40;;;6.03;;
14167;SDS011;7163;50.626;12.922;2023-07-28T05:59:37;1.27;;;1.27;;
14167;SDS011;7163;50.626;12.922;2023-07-28T06:04:37;1.37;;;1.27;;
14167;SDS011;7163;50.626;12.922;2023-07-28T06:09:38;0.90;;;0.90;;
14167;SDS011;7163;50.626;12.922;2023-07-28T06:14:38;1.10;;;1.10;;
14167;SDS011;7163;50.626;12.922;2023-07-28T06:19:39;1.40;;;1.30;;
14167;SDS011;7163;50.626;12.922;2023-07-28T06:24:40;1.97;;;1.50;;
14167;SDS011;7163;50.626;12.922;2023-07-28T06:29:41;1.10;;;1.10;;
14167;SDS011;7163;50.626;12.922;2023-07-28T06:34:42;0.90;;;0.90;;
14167;SDS011;7163;50.626;12.922;2023-07-28T06:39:42;3.77;;;1.30;;
14167;SDS011;7163;50.626;12.922;2023-07-28T06:44:42;2.43;;;1.03;;
14167;SDS011;7163;50.626;12.922;2023-07-28T06:49:44;0.90;;;0.90;;
14167;SDS011;7163;50.626;12.922;2023-07-28T06:54:44;1.07;;;1.00;;
14167;SDS011;7163;50.626;12.922;2023-07-28T06:59:44;1.47;;;0.93;;
14167;SDS011;7163;50.626;12.922;2023-07-28T07:04:45;1.27;;;1.07;;
14167;SDS011;7163;50.626;12.922;2023-07-28T07:09:46;0.73;;;0.73;;
14167;SDS011;7163;50.626;12.922;2023-07-28T07:14:46;0.90;;;0.90;;
14167;SDS011;7163;50.626;12.922;2023-07-28T07:19:47;1.20;;;1.10;;
14167;SDS011;7163;50.626;12.922;2023-07-28T07:24:47;0.80;;;0.80;;
14167;SDS011;7163;50.626;12.922;2023-07-28T07:29:48;1.10;;;1.10;;
14167;SDS011;7163;50.626;12.922;2023-07-28T07:34:49;0.95;;;0.95;;
14167;SDS011;7163;50.626;12.922;2023-07-28T07:39:50;0.80;;;0.80;;
14167;SDS011;7163;50.626;12.922;2023-07-28T07:44:50;2.10;;;1.00;;
14167;SDS011;7163;50.626;12.922;2023-07-28T07:49:53;1.13;;;1.08;;
14167;SDS011;7163;50.626;12.922;2023-07-28T07:54:54;1.35;;;1.10;;
14167;SDS011;7163;50.626;12.922;2023-07-28T07:59:58;1.10;;;1.10;;
14167;SDS011;7163;50.626;12.922;2023-07-28T08:04:59;1.00;;;1.00;;
14167;SDS011;7163;50.626;12.922;2023-07-28T08:09:59;0.93;;;0.93;;
14167;SDS011;7163;50.626;12.922;2023-07-28T08:15:00;1.40;;;1.30;;
14167;SDS011;7163;50.626;12.922;2023-07-28T08:20:01;1.73;;;1.20;;
14167;SDS011;7163;50.626;12.922;2023-07-28T08:25:02;1.75;;;1.20;;
14167;SDS011;7163;50.626;12.922;2023-07-28T08:30:03;0.95;;;0.95;;
14167;SDS011;7163;50.626;12.922;2023-07-28T08:35:04;1.38;;;1.10;;
14167;SDS011;7163;50.626;12.922;2023-07-28T08:40:05;1.15;;;1.13;;
14167;SDS011;7163;50.626;12.922;2023-07-28T08:45:07;1.80;;;1.20;;
14167;SDS011;7163;50.626;12.922;2023-07-28T08:50:11;1.00;;;1.00;;
14167;SDS011;7163;50.626;12.922;2023-07-28T08:55:12;1.90;;;1.10;;
14167;SDS011;7163;50.626;12.922;2023-07-28T09:00:13;4.10;;;1.25;;
14167;SDS011;7163;50.626;12.922;2023-07-28T09:05:18;1.88;;;1.05;;
14167;SDS011;7163;50.626;12.922;2023-07-28T09:10:20;1.70;;;1.35;;
14167;SDS011;7163;50.626;12.922;2023-07-28T09:15:20;1.00;;;1.00;;
14167;SDS011;7163;50.626;12.922;2023-07-28T09:20:21;2.28;;;1.00;;
14167;SDS011;7163;50.626;12.922;2023-07-28T09:25:21;2.70;;;1.80;;
14167;SDS011;7163;50.626;12.922;2023-07-28T09:30:22;1.30;;;1.20;;
14167;SDS011;7163;50.626;12.922;2023-07-28T09:35:23;1.15;;;1.08;;
14167;SDS011;7163;50.626;12.922;2023-07-28T09:40:24;2.55;;;1.58;;
14167;SDS011;7163;50.626;12.922;2023-07-28T09:45:25;1.35;;;1.25;;
14167;SDS011;7163;50.626;12.922;2023-07-28T09:50:26;3.50;;;1.48;;
14167;SDS011;7163;50.626;12.922;2023-07-28T09:55:28;1.75;;;1.10;;
14167;SDS011;7163;50.626;12.922;2023-07-28T10:00:28;0.80;;;0.80;;
14167;SDS011;7163;50.626;12.922;2023-07-28T10:05:29;2.03;;;1.30;;
14167;SDS011;7163;50.626;12.922;2023-07-28T10:10:30;1.02;;;0.93;;
14167;SDS011;7163;50.626;12.922;2023-07-28T10:15:32;0.75;;;0.75;;
14167;SDS011;7163;50.626;12.922;2023-07-28T10:20:36;0.77;;;0.77;;
14167;SDS011;7163;50.626;12.922;2023-07-28T10:25:41;0.90;;;0.90;;
14167;SDS011;7163;50.626;12.922;2023-07-28T10:30:53;0.90;;;0.80;;
14167;SDS011;7163;50.626;12.922;2023-07-28T10:35:54;1.95;;;0.70;;
14167;SDS011;7163;50.626;12.922;2023-07-28T10:41:04;1.45;;;1.00;;
14167;SDS011;7163;50.626;12.922;2023-07-28T10:46:09;1.08;;;0.98;;
14167;SDS011;7163;50.626;12.922;2023-07-28T10:51:31;1.08;;;1.08;;
14167;SDS011;7163;50.626;12.922;2023-07-28T10:56:33;1.27;;;1.08;;
14167;SDS011;7163;50.626;12.922;2023-07-28T11:01:34;1.50;;;1.38;;
14167;SDS011;7163;50.626;12.922;2023-07-28T11:06:40;2.50;;;1.10;;
14167;SDS011;7163;50.626;12.922;2023-07-28T11:11:42;1.00;;;1.00;;
14167;SDS011;7163;50.626;12.922;2023-07-28T11:16:43;1.40;;;1.00;;
14167;SDS011;7163;50.626;12.922;2023-07-28T11:21:50;1.02;;;1.00;;
14167;SDS011;7163;50.626;12.922;2023-07-28T11:26:51;2.13;;;1.10;;
14167;SDS011;7163;50.626;12.922;2023-07-28T11:31:52;1.83;;;1.15;;
14167;SDS011;7163;50.626;12.922;2023-07-28T11:36:52;1.42;;;1.20;;
14167;SDS011;7163;50.626;12.922;2023-07-28T11:41:53;1.70;;;1.27;;
14167;SDS011;7163;50.626;12.922;2023-07-28T11:46:55;1.25;;;1.15;;
14167;SDS011;7163;50.626;12.922;2023-07-28T11:51:55;0.93;;;0.90;;
14167;SDS011;7163;50.626;12.922;2023-07-28T11:56:58;1.42;;;1.05;;
14167;SDS011;7163;50.626;12.922;2023-07-28T12:02:00;1.00;;;1.00;;
14167;SDS011;7163;50.626;12.922;2023-07-28T12:07:06;0.80;;;0.80;;
14167;SDS011;7163;50.626;12.922;2023-07-28T12:12:08;1.70;;;0.98;;
14167;SDS011;7163;50.626;12.922;2023-07-28T12:17:12;1.10;;;1.10;;
14167;SDS011;7163;50.626;12.922;2023-07-28T12:22:13;1.35;;;1.25;;
14167;SDS011;7163;50.626;12.922;2023-07-28T12:27:13;1.10;;;1.10;;
14167;SDS011;7163;50.626;12.922;2023-07-28T12:32:15;1.95;;;0.90;;
14167;SDS011;7163;50.626;12.922;2023-07-28T12:37:16;1.27;;;1.20;;
14167;SDS011;7163;50.626;12.922;2023-07-28T12:42:17;1.23;;;1.13;;
14167;SDS011;7163;50.626;12.922;2023-07-28T12:47:20;1.10;;;1.00;;
14167;SDS011;7163;50.626;12.922;2023-07-28T12:52:21;0.90;;;0.90;;
14167;SDS011;7163;50.626;12.922;2023-07-28T12:57:21;1.00;;;1.00;;
14167;SDS011;7163;50.626;12.922;2023-07-28T13:02:32;1.60;;;0.98;;
14167;SDS011;7163;50.626;12.922;2023-07-28T13:07:48;0.77;;;0.77;;
14167;SDS011;7163;50.626;12.922;2023-07-28T13:12:48;2.88;;;1.10;;
14167;SDS011;7163;50.626;12.922;2023-07-28T13:17:49;3.38;;;1.20;;
14167;SDS011;7163;50.626;12.922;2023-07-28T13:22:49;1.25;;;1.02;;
14167;SDS011;7163;50.626;12.922;2023-07-28T13:27:50;1.00;;;1.00;;
14167;SDS011;7163;50.626;12.922;2023-07-28T13:32:51;1.20;;;1.10;;
14167;SDS011;7163;50.626;12.922;2023-07-28T13:37:51;2.10;;;1.00;;
14167;SDS011;7163;50.626;12.922;2023-07-28T13:42:52;1.10;;;1.10;;
14167;SDS011;7163;50.626;12.922;2023-07-28T13:47:53;2.05;;;0.75;;
14167;SDS011;7163;50.626;12.922;2023-07-28T13:52:53;2.83;;;1.08;;
14167;SDS011;7163;50.626;12.922;2023-07-28T13:57:55;0.90;;;0.90;;
14167;SDS011;7163;50.626;12.922;2023-07-28T14:02:55;0.98;;;0.95;;
14167;SDS011;7163;50.626;12.922;2023-07-28T14:07:56;0.93;;;0.80;;
14167;SDS011;7163;50.626;12.922;2023-07-28T14:12:56;0.80;;;0.80;;
14167;SDS011;7163;50.626;12.922;2023-07-28T14:17:57;1.08;;;0.93;;
14167;SDS011;7163;50.626;12.922;2023-07-28T14:22:59;2.78;;;0.90;;
14167;SDS011;7163;50.626;12.922;2023-07-28T14:28:00;1.00;;;1.00;;
14167;SDS011;7163;50.626;12.922;2023-07-28T14:33:01;2.97;;;1.15;;
14167;SDS011;7163;50.626;12.922;2023-07-28T14:38:01;1.10;;;1.10;;
14167;SDS011;7163;50.626;12.922;2023-07-28T14:43:02;0.80;;;0.80;;
14167;SDS011;7163;50.626;12.922;2023-07-28T14:48:06;2.55;;;0.80;;
14167;SDS011;7163;50.626;12.922;2023-07-28T14:58:29;0.63;;;0.63;;
14167;SDS011;7163;50.626;12.922;2023-07-28T15:03:30;0.82;;;0.82;;
14167;SDS011;7163;50.626;12.922;2023-07-28T15:08:31;1.17;;;0.95;;
14167;SDS011;7163;50.626;12.922;2023-07-28T15:13:31;0.90;;;0.90;;
14167;SDS011;7163;50.626;12.922;2023-07-28T15:18:32;1.75;;;1.08;;
14167;SDS011;7163;50.626;12.922;2023-07-28T15:23:32;1.03;;;0.87;;
14167;SDS011;7163;50.626;12.922;2023-07-28T15:28:32;1.37;;;0.70;;
14167;SDS011;7163;50.626;12.922;2023-07-28T15:33:33;0.60;;;0.60;;
14167;SDS011;7163;50.626;12.922;2023-07-28T15:38:34;1.85;;;1.20;;
14167;SDS011;7163;50.626;12.922;2023-07-28T15:43:35;1.10;;;1.00;;
14167;SDS011;7163;50.626;12.922;2023-07-28T15:48:36;0.75;;;0.75;;
14167;SDS011;7163;50.626;12.922;2023-07-28T15:53:37;1.92;;;0.98;;
14167;SDS011;7163;50.626;12.922;2023-07-28T15:58:37;0.68;;;0.68;;
14167;SDS011;7163;50.626;12.922;2023-07-28T16:03:38;2.57;;;0.90;;
14167;SDS011;7163;50.626;12.922;2023-07-28T16:08:38;1.05;;;0.90;;
14167;SDS011;7163;50.626;12.922;2023-07-28T16:13:39;2.85;;;1.00;;
14167;SDS011;7163;50.626;12.922;2023-07-28T16:18:39;1.00;;;1.00;;
14167;SDS011;7163;50.626;12.922;2023-07-28T16:23:40;1.13;;;1.02;;
14167;SDS011;7163;50.626;12.922;2023-07-28T16:28:40;1.25;;;0.85;;
14167;SDS011;7163;50.626;12.922;2023-07-28T16:33:44;1.33;;;0.80;;
14167;SDS011;7163;50.626;12.922;2023-07-28T16:38:44;1.38;;;0.95;;
14167;SDS011;7163;50.626;12.922;2023-07-28T16:43:44;1.77;;;0.88;;
14167;SDS011;7163;50.626;12.922;2023-07-28T16:48:45;1.08;;;0.88;;
14167;SDS011;7163;50.626;12.922;2023-07-28T16:53:46;0.80;;;0.80;;
14167;SDS011;7163;50.626;12.922;2023-07-28T16:59:01;1.02;;;0.93;;
14167;SDS011;7163;50.626;12.922;2023-07-28T17:04:02;1.13;;;0.90;;
14167;SDS011;7163;50.626;12.922;2023-07-28T17:09:16;1.85;;;0.80;;
14167;SDS011;7163;50.626;12.922;2023-07-28T17:14:19;1.77;;;1.05;;
14167;SDS011;7163;50.626;12.922;2023-07-28T17:19:31;2.25;;;1.08;;
14167;SDS011;7163;50.626;12.922;2023-07-28T17:24:32;1.17;;;1.17;;
14167;SDS011;7163;50.626;12.922;2023-07-28T17:29:33;1.95;;;1.38;;
14167;SDS011;7163;50.626;12.922;2023-07-28T17:34:33;1.45;;;1.35;;
14167;SDS011;7163;50.626;12.922;2023-07-28T17:39:34;1.30;;;1.20;;
14167;SDS011;7163;50.626;12.922;2023-07-28T17:44:34;9.57;;;1.80;;
14167;SDS011;7163;50.626;12.922;2023-07-28T17:49:35;2.63;;;1.38;;
14167;SDS011;7163;50.626;12.922;2023-07-28T17:54:38;1.60;;;1.50;;
14167;SDS011;7163;50.626;12.922;2023-07-28T17:59:38;2.97;;;1.27;;
14167;SDS011;7163;50.626;12.922;2023-07-28T18:04:39;1.50;;;1.40;;
14167;SDS011;7163;50.626;12.922;2023-07-28T18:09:39;1.70;;;1.60;;
14167;SDS011;7163;50.626;12.922;2023-07-28T18:14:40;1.45;;;1.35;;
14167;SDS011;7163;50.626;12.922;2023-07-28T18:19:40;1.50;;;1.40;;
14167;SDS011;7163;50.626;12.922;2023-07-28T18:24:41;2.42;;;1.65;;
14167;SDS011;7163;50.626;12.922;2023-07-28T18:29:41;1.60;;;1.50;;
14167;SDS011;7163;50.626;12.922;2023-07-28T18:34:42;1.70;;;1.60;;
14167;SDS011;7163;50.626;12.922;2023-07-28T18:39:42;1.60;;;1.50;;
14167;SDS011;7163;50.626;12.922;2023-07-28T18:44:43;2.00;;;1.80;;
14167;SDS011;7163;50.626;12.922;2023-07-28T18:49:43;2.60;;;1.80;;
14167;SDS011;7163;50.626;12.922;2023-07-28T18:54:44;3.47;;;1.90;;
14167;SDS011;7163;50.626;12.922;2023-07-28T18:59:44;3.95;;;3.05;;
14167;SDS011;7163;50.626;12.922;2023-07-28T19:04:45;4.07;;;2.90;;
14167;SDS011;7163;50.626;12.922;2023-07-28T19:09:48;2.72;;;2.05;;
14167;SDS011;7163;50.626;12.922;2023-07-28T19:14:49;2.95;;;1.63;;
14167;SDS011;7163;50.626;12.922;2023-07-28T19:19:50;3.67;;;1.60;;
14167;SDS011;7163;50.626;12.922;2023-07-28T19:24:52;2.38;;;2.17;;
14167;SDS011;7163;50.626;12.922;2023-07-28T19:29:52;4.32;;;3.10;;
14167;SDS011;7163;50.626;12.922;2023-07-28T19:34:52;5.75;;;2.55;;
14167;SDS011;7163;50.626;12.922;2023-07-28T19:39:53;3.03;;;2.60;;
14167;SDS011;7163;50.626;12.922;2023-07-28T19:44:55;2.90;;;2.50;;
14167;SDS011;7163;50.626;12.922;2023-07-28T19:49:55;2.37;;;2.10;;
14167;SDS011;7163;50.626;12.922;2023-07-28T19:54:57;4.07;;;2.43;;
14167;SDS011;7163;50.626;12.922;2023-07-28T19:59:57;4.53;;;2.63;;
14167;SDS011;7163;50.626;12.922;2023-07-28T20:04:58;2.80;;;2.43;;
14167;SDS011;7163;50.626;12.922;2023-07-28T20:09:58;4.70;;;2.30;;
14167;SDS011;7163;50.626;12.922;2023-07-28T20:14:59;3.73;;;2.53;;
14167;SDS011;7163;50.626;12.922;2023-07-28T20:20:00;2.77;;;2.40;;
14167;SDS011;7163;50.626;12.922;2023-07-28T20:25:01;2.60;;;2.40;;
14167;SDS011;7163;50.626;12.922;2023-07-28T20:30:02;3.93;;;2.90;;
14167;SDS011;7163;50.626;12.922;2023-07-28T20:35:03;4.90;;;3.10;;
14167;SDS011;7163;50.626;12.922;2023-07-28T20:40:04;4.17;;;2.70;;
14167;SDS011;7163;50.626;12.922;2023-07-28T20:45:06;3.23;;;2.93;;
14167;SDS011;7163;50.626;12.922;2023-07-28T20:50:07;3.70;;;3.20;;
14167;SDS011;7163;50.626;12.922;2023-07-28T20:55:07;12.10;;;3.80;;
14167;SDS011;7163;50.626;12.922;2023-07-28T21:00:09;5.20;;;3.40;;
14167;SDS011;7163;50.626;12.922;2023-07-28T21:05:12;6.93;;;3.80;;
14167;SDS011;7163;50.626;12.922;2023-07-28T21:10:12;3.87;;;3.47;;
14167;SDS011;7163;50.626;12.922;2023-07-28T21:15:13;4.43;;;3.70;;
14167;SDS011;7163;50.626;12.922;2023-07-28T21:20:14;4.40;;;3.67;;
14167;SDS011;7163;50.626;12.922;2023-07-28T21:25:14;5.67;;;3.90;;
14167;SDS011;7163;50.626;12.922;2023-07-28T21:30:15;4.23;;;3.80;;
14167;SDS011;7163;50.626;12.922;2023-07-28T21:35:15;4.20;;;3.60;;
14167;SDS011;7163;50.626;12.922;2023-07-28T21:40:16;5.97;;;3.57;;
14167;SDS011;7163;50.626;12.922;2023-07-28T21:45:17;4.87;;;3.20;;
14167;SDS011;7163;50.626;12.922;2023-07-28T21:50:18;3.70;;;3.40;;
14167;SDS011;7163;50.626;12.922;2023-07-28T21:55:18;3.50;;;3.00;;
14167;SDS011;7163;50.626;12.922;2023-07-28T22:00:19;3.40;;;2.60;;
14167;SDS011;7163;50.626;12.922;2023-07-28T22:05:20;6.50;;;3.50;;
14167;SDS011;7163;50.626;12.922;2023-07-28T22:10:20;3.57;;;2.50;;
14167;SDS011;7163;50.626;12.922;2023-07-28T22:15:21;5.07;;;3.10;;
14167;SDS011;7163;50.626;12.922;2023-07-28T22:20:22;5.17;;;2.90;;
14167;SDS011;7163;50.626;12.922;2023-07-28T22:25:26;4.37;;;2.90;;
14167;SDS011;7163;50.626;12.922;2023-07-28T22:30:27;5.27;;;3.57;;
14167;SDS011;7163;50.626;12.922;2023-07-28T22:35:27;3.53;;;3.00;;
14167;SDS011;7163;50.626;12.922;2023-07-28T22:40:28;3.30;;;2.90;;
14167;SDS011;7163;50.626;12.922;2023-07-28T22:45:28;5.70;;;3.67;;
14167;SDS011;7163;50.626;12.922;2023-07-28T22:50:29;5.20;;;3.53;;
14167;SDS011;7163;50.626;12.922;2023-07-28T22:55:29;4.77;;;3.40;;
14167;SDS011;7163;50.626;12.922;2023-07-28T23:00:30;4.80;;;3.27;;
14167;SDS011;7163;50.626;12.922;2023-07-28T23:05:32;2.50;;;2.30;;
14167;SDS011;7163;50.626;12.922;2023-07-28T23:10:34;2.70;;;2.50;;
14167;SDS011;7163;50.626;12.922;2023-07-28T23:15:34;2.70;;;2.47;;
14167;SDS011;7163;50.626;12.922;2023-07-28T23:20:35;4.77;;;2.47;;
14167;SDS011;7163;50.626;12.922;2023-07-28T23:25:36;1.90;;;1.80;;
14167;SDS011;7163;50.626;12.922;2023-07-28T23:30:36;3.10;;;2.23;;
14167;SDS011;7163;50.626;12.922;2023-07-28T23:35:38;2.43;;;2.23;;
14167;SDS011;7163;50.626;12.922;2023-07-28T23:40:38;2.27;;;2.00;;
14167;SDS011;7163;50.626;12.922;2023-07-28T23:45:39;1.70;;;1.60;;
14167;SDS011;7163;50.626;12.922;2023-07-28T23:50:39;2.00;;;1.77;;
14167;SDS011;7163;50.626;12.922;2023-07-28T23:55:40;1.90;;;1.80;;
